sensor_id;sensor_type;location;lat;lon;timestamp;temperature;humidity
37268;DHT22;23154;52.542;13.362;2022-10-16T00:01:54;15.10;99.90
37268;DHT22;23154;52.542;13.362;2022-10-16T00:04:20;15.20;99.90
37268;DHT22;23154;52.542;13.362;2022-10-16T00:06:45;15.20;99.90
37268;DHT22;23154;52.542;13.362;2022-10-16T00:09:11;15.30;99.90
37268;DHT22;23154;52.542;13.362;2022-10-16T00:11:37;15.30;99.90
37268;DHT22;23154;52.542;13.362;2022-10-16T00:14:04;15.30;99.90
37268;DHT22;23154;52.542;13.362;2022-10-16T00:16:30;15.40;99.90
37268;DHT22;23154;52.542;13.362;2022-10-16T00:18:56;15.30;99.90
37268;DHT22;23154;52.542;13.362;2022-10-16T00:21:23;15.40;99.90
37268;DHT22;23154;52.542;13.362;2022-10-16T00:23:53;15.40;99.90
37268;DHT22;23154;52.542;13.362;2022-10-16T00:26:19;15.40;99.90
37268;DHT22;23154;52.542;13.362;2022-10-16T00:28:45;15.40;99.90
37268;DHT22;23154;52.542;13.362;2022-10-16T00:31:11;15.40;99.90
37268;DHT22;23154;52.542;13.362;2022-10-16T00:33:37;15.40;99.90
37268;DHT22;23154;52.542;13.362;2022-10-16T00:36:03;15.40;99.90
37268;DHT22;23154;52.542;13.362;2022-10-16T00:38:29;15.40;99.90
37268;DHT22;23154;52.542;13.362;2022-10-16T00:40:55;15.30;99.90
37268;DHT22;23154;52.542;13.362;2022-10-16T00:45:58;15.30;99.90
37268;DHT22;23154;52.542;13.362;2022-10-16T00:48:24;15.40;99.90
37268;DHT22;23154;52.542;13.362;2022-10-16T00:50:50;15.40;99.90
37268;DHT22;23154;52.542;13.362;2022-10-16T00:53:16;15.40;99.90
37268;DHT22;23154;52.542;13.362;2022-10-16T00:55:41;15.40;99.90
37268;DHT22;23154;52.542;13.362;2022-10-16T00:58:07;15.40;99.90
37268;DHT22;23154;52.542;13.362;2022-10-16T01:00:32;15.50;99.90
37268;DHT22;23154;52.542;13.362;2022-10-16T01:02:59;15.40;99.90
37268;DHT22;23154;52.542;13.362;2022-10-16T01:05:30;15.40;99.90
37268;DHT22;23154;52.542;13.362;2022-10-16T01:10:36;15.40;99.90
37268;DHT22;23154;52.542;13.362;2022-10-16T01:13:04;15.40;99.90
37268;DHT22;23154;52.542;13.362;2022-10-16T01:20:29;15.40;99.90
37268;DHT22;23154;52.542;13.362;2022-10-16T01:22:58;15.40;99.90
37268;DHT22;23154;52.542;13.362;2022-10-16T01:28:09;15.40;99.90
37268;DHT22;23154;52.542;13.362;2022-10-16T01:30:37;15.40;99.90
37268;DHT22;23154;52.542;13.362;2022-10-16T01:33:04;15.40;99.90
37268;DHT22;23154;52.542;13.362;2022-10-16T01:35:36;15.40;99.90
37268;DHT22;23154;52.542;13.362;2022-10-16T01:40:41;15.40;99.90
37268;DHT22;23154;52.542;13.362;2022-10-16T01:43:14;15.30;99.90
37268;DHT22;23154;52.542;13.362;2022-10-16T01:45:41;15.30;99.90
37268;DHT22;23154;52.542;13.362;2022-10-16T01:48:06;15.30;99.90
37268;DHT22;23154;52.542;13.362;2022-10-16T01:50:35;15.30;99.90
37268;DHT22;23154;52.542;13.362;2022-10-16T01:53:02;15.30;99.90
37268;DHT22;23154;52.542;13.362;2022-10-16T01:55:31;15.30;99.90
37268;DHT22;23154;52.542;13.362;2022-10-16T01:57:57;15.30;99.90
37268;DHT22;23154;52.542;13.362;2022-10-16T02:00:25;15.30;99.90
37268;DHT22;23154;52.542;13.362;2022-10-16T02:02:52;15.30;99.90
37268;DHT22;23154;52.542;13.362;2022-10-16T02:05:26;15.30;99.90
37268;DHT22;23154;52.542;13.362;2022-10-16T02:07:52;15.30;99.90
37268;DHT22;23154;52.542;13.362;2022-10-16T02:10:18;15.30;99.90
37268;DHT22;23154;52.542;13.362;2022-10-16T02:12:49;15.40;99.90
37268;DHT22;23154;52.542;13.362;2022-10-16T02:15:15;15.40;99.90
37268;DHT22;23154;52.542;13.362;2022-10-16T02:17:41;15.40;99.90
37268;DHT22;23154;52.542;13.362;2022-10-16T02:20:06;15.40;99.90
37268;DHT22;23154;52.542;13.362;2022-10-16T02:25:08;15.40;99.90
37268;DHT22;23154;52.542;13.362;2022-10-16T02:27:38;15.40;99.90
37268;DHT22;23154;52.542;13.362;2022-10-16T02:32:33;15.30;99.90
37268;DHT22;23154;52.542;13.362;2022-10-16T02:34:59;15.30;99.90
37268;DHT22;23154;52.542;13.362;2022-10-16T02:37:25;15.40;99.90
37268;DHT22;23154;52.542;13.362;2022-10-16T02:39:52;15.40;99.90
37268;DHT22;23154;52.542;13.362;2022-10-16T02:42:18;15.40;99.90
37268;DHT22;23154;52.542;13.362;2022-10-16T02:44:43;15.30;99.90
37268;DHT22;23154;52.542;13.362;2022-10-16T02:47:09;15.40;99.90
37268;DHT22;23154;52.542;13.362;2022-10-16T02:49:34;15.30;99.90
37268;DHT22;23154;52.542;13.362;2022-10-16T02:52:00;15.30;99.90
37268;DHT22;23154;52.542;13.362;2022-10-16T02:54:25;15.30;99.90
37268;DHT22;23154;52.542;13.362;2022-10-16T02:56:51;15.30;99.90
37268;DHT22;23154;52.542;13.362;2022-10-16T02:59:17;15.30;99.90
37268;DHT22;23154;52.542;13.362;2022-10-16T03:01:42;15.20;99.90
37268;DHT22;23154;52.542;13.362;2022-10-16T03:04:08;15.10;99.90
37268;DHT22;23154;52.542;13.362;2022-10-16T03:06:34;15.10;99.90
37268;DHT22;23154;52.542;13.362;2022-10-16T03:08:59;15.10;99.90
37268;DHT22;23154;52.542;13.362;2022-10-16T03:11:24;15.00;99.90
37268;DHT22;23154;52.542;13.362;2022-10-16T03:13:50;15.00;99.90
37268;DHT22;23154;52.542;13.362;2022-10-16T03:16:15;15.00;99.90
37268;DHT22;23154;52.542;13.362;2022-10-16T03:18:41;14.90;99.90
37268;DHT22;23154;52.542;13.362;2022-10-16T03:21:06;14.80;99.90
37268;DHT22;23154;52.542;13.362;2022-10-16T03:23:32;14.80;99.90
37268;DHT22;23154;52.542;13.362;2022-10-16T03:25:57;14.80;99.90
37268;DHT22;23154;52.542;13.362;2022-10-16T03:28:22;14.80;99.90
37268;DHT22;23154;52.542;13.362;2022-10-16T03:30:48;14.80;99.90
37268;DHT22;23154;52.542;13.362;2022-10-16T03:33:13;14.70;99.90
37268;DHT22;23154;52.542;13.362;2022-10-16T03:35:39;14.70;99.90
37268;DHT22;23154;52.542;13.362;2022-10-16T03:38:04;14.70;99.90
37268;DHT22;23154;52.542;13.362;2022-10-16T03:40:30;14.60;99.90
37268;DHT22;23154;52.542;13.362;2022-10-16T03:42:57;14.60;99.90
37268;DHT22;23154;52.542;13.362;2022-10-16T03:45:23;14.50;99.90
37268;DHT22;23154;52.542;13.362;2022-10-16T03:47:48;14.50;99.90
37268;DHT22;23154;52.542;13.362;2022-10-16T03:50:14;14.30;99.90
37268;DHT22;23154;52.542;13.362;2022-10-16T03:52:40;14.30;99.90
37268;DHT22;23154;52.542;13.362;2022-10-16T03:55:05;14.30;99.90
37268;DHT22;23154;52.542;13.362;2022-10-16T03:57:31;14.30;99.90
37268;DHT22;23154;52.542;13.362;2022-10-16T03:59:57;14.40;99.90
37268;DHT22;23154;52.542;13.362;2022-10-16T04:02:22;14.60;99.90
37268;DHT22;23154;52.542;13.362;2022-10-16T04:04:48;14.60;99.90
37268;DHT22;23154;52.542;13.362;2022-10-16T04:07:13;14.50;99.90
37268;DHT22;23154;52.542;13.362;2022-10-16T04:09:39;14.60;99.90
37268;DHT22;23154;52.542;13.362;2022-10-16T04:12:04;14.60;99.90
37268;DHT22;23154;52.542;13.362;2022-10-16T04:14:30;14.60;99.90
37268;DHT22;23154;52.542;13.362;2022-10-16T04:16:55;14.70;99.90
37268;DHT22;23154;52.542;13.362;2022-10-16T04:19:21;14.60;99.90
37268;DHT22;23154;52.542;13.362;2022-10-16T04:21:46;14.50;99.90
37268;DHT22;23154;52.542;13.362;2022-10-16T04:24:11;14.50;99.90
37268;DHT22;23154;52.542;13.362;2022-10-16T04:26:37;14.50;99.90
37268;DHT22;23154;52.542;13.362;2022-10-16T04:29:03;14.40;99.90
37268;DHT22;23154;52.542;13.362;2022-10-16T04:31:28;14.40;99.90
37268;DHT22;23154;52.542;13.362;2022-10-16T04:33:53;14.40;99.90
37268;DHT22;23154;52.542;13.362;2022-10-16T04:36:19;14.40;99.90
37268;DHT22;23154;52.542;13.362;2022-10-16T04:38:44;14.40;99.90
37268;DHT22;23154;52.542;13.362;2022-10-16T04:41:10;14.40;99.90
37268;DHT22;23154;52.542;13.362;2022-10-16T04:43:35;14.40;99.90
37268;DHT22;23154;52.542;13.362;2022-10-16T04:46:01;14.30;99.90
37268;DHT22;23154;52.542;13.362;2022-10-16T04:48:27;14.30;99.90
37268;DHT22;23154;52.542;13.362;2022-10-16T04:50:52;14.30;99.90
37268;DHT22;23154;52.542;13.362;2022-10-16T04:53:18;14.20;99.90
37268;DHT22;23154;52.542;13.362;2022-10-16T04:55:43;14.20;99.90
37268;DHT22;23154;52.542;13.362;2022-10-16T04:58:09;14.10;99.90
37268;DHT22;23154;52.542;13.362;2022-10-16T05:00:34;14.10;99.90
37268;DHT22;23154;52.542;13.362;2022-10-16T05:03:00;14.10;99.90
37268;DHT22;23154;52.542;13.362;2022-10-16T05:05:26;14.20;99.90
37268;DHT22;23154;52.542;13.362;2022-10-16T05:07:51;14.20;99.90
37268;DHT22;23154;52.542;13.362;2022-10-16T05:10:17;14.20;99.90
37268;DHT22;23154;52.542;13.362;2022-10-16T05:12:42;14.10;99.90
37268;DHT22;23154;52.542;13.362;2022-10-16T05:15:08;14.00;99.90
37268;DHT22;23154;52.542;13.362;2022-10-16T05:17:34;14.00;99.90
37268;DHT22;23154;52.542;13.362;2022-10-16T05:19:59;14.00;99.90
37268;DHT22;23154;52.542;13.362;2022-10-16T05:22:25;14.10;99.90
37268;DHT22;23154;52.542;13.362;2022-10-16T05:24:50;14.10;99.90
37268;DHT22;23154;52.542;13.362;2022-10-16T05:27:16;14.20;99.90
37268;DHT22;23154;52.542;13.362;2022-10-16T05:29:45;14.10;99.90
37268;DHT22;23154;52.542;13.362;2022-10-16T05:32:11;14.30;99.90
37268;DHT22;23154;52.542;13.362;2022-10-16T05:34:36;14.20;99.90
37268;DHT22;23154;52.542;13.362;2022-10-16T05:37:02;14.20;99.90
37268;DHT22;23154;52.542;13.362;2022-10-16T05:39:27;14.30;99.90
37268;DHT22;23154;52.542;13.362;2022-10-16T05:41:53;14.20;99.90
37268;DHT22;23154;52.542;13.362;2022-10-16T05:44:18;14.40;99.90
37268;DHT22;23154;52.542;13.362;2022-10-16T05:46:43;14.40;99.90
37268;DHT22;23154;52.542;13.362;2022-10-16T05:49:11;14.50;99.90
37268;DHT22;23154;52.542;13.362;2022-10-16T05:51:36;14.50;99.90
37268;DHT22;23154;52.542;13.362;2022-10-16T05:54:02;14.40;99.90
37268;DHT22;23154;52.542;13.362;2022-10-16T05:56:27;14.40;99.90
37268;DHT22;23154;52.542;13.362;2022-10-16T05:58:53;14.50;99.90
37268;DHT22;23154;52.542;13.362;2022-10-16T06:01:19;14.40;99.90
37268;DHT22;23154;52.542;13.362;2022-10-16T06:03:46;14.40;99.90
37268;DHT22;23154;52.542;13.362;2022-10-16T06:06:15;14.30;99.90
37268;DHT22;23154;52.542;13.362;2022-10-16T06:08:41;14.30;99.90
37268;DHT22;23154;52.542;13.362;2022-10-16T06:11:09;14.30;99.90
37268;DHT22;23154;52.542;13.362;2022-10-16T06:13:35;14.30;99.90
37268;DHT22;23154;52.542;13.362;2022-10-16T06:16:00;14.40;99.90
37268;DHT22;23154;52.542;13.362;2022-10-16T06:18:26;14.40;99.90
37268;DHT22;23154;52.542;13.362;2022-10-16T06:20:52;14.40;99.90
37268;DHT22;23154;52.542;13.362;2022-10-16T06:23:18;14.50;99.90
37268;DHT22;23154;52.542;13.362;2022-10-16T06:25:43;14.60;99.90
37268;DHT22;23154;52.542;13.362;2022-10-16T06:28:09;14.70;99.90
37268;DHT22;23154;52.542;13.362;2022-10-16T06:30:34;14.70;99.90
37268;DHT22;23154;52.542;13.362;2022-10-16T06:33:00;14.80;99.90
37268;DHT22;23154;52.542;13.362;2022-10-16T06:35:25;14.80;99.90
37268;DHT22;23154;52.542;13.362;2022-10-16T06:37:52;14.80;99.90
37268;DHT22;23154;52.542;13.362;2022-10-16T06:40:17;14.80;99.90
37268;DHT22;23154;52.542;13.362;2022-10-16T06:42:44;14.80;99.90
37268;DHT22;23154;52.542;13.362;2022-10-16T06:45:10;14.80;99.90
37268;DHT22;23154;52.542;13.362;2022-10-16T06:47:36;14.80;99.90
37268;DHT22;23154;52.542;13.362;2022-10-16T06:50:01;14.90;99.90
37268;DHT22;23154;52.542;13.362;2022-10-16T06:52:29;14.90;99.90
37268;DHT22;23154;52.542;13.362;2022-10-16T06:54:55;14.90;99.90
37268;DHT22;23154;52.542;13.362;2022-10-16T06:57:20;15.00;99.90
37268;DHT22;23154;52.542;13.362;2022-10-16T06:59:46;15.20;99.90
37268;DHT22;23154;52.542;13.362;2022-10-16T07:02:11;15.40;99.90
37268;DHT22;23154;52.542;13.362;2022-10-16T07:04:37;15.40;99.90
37268;DHT22;23154;52.542;13.362;2022-10-16T07:07:02;15.40;99.90
37268;DHT22;23154;52.542;13.362;2022-10-16T07:09:28;15.50;99.90
37268;DHT22;23154;52.542;13.362;2022-10-16T07:11:53;15.60;99.90
37268;DHT22;23154;52.542;13.362;2022-10-16T07:14:19;15.70;99.90
37268;DHT22;23154;52.542;13.362;2022-10-16T07:16:45;15.80;99.90
37268;DHT22;23154;52.542;13.362;2022-10-16T07:19:10;15.90;99.90
37268;DHT22;23154;52.542;13.362;2022-10-16T07:21:38;16.00;99.90
37268;DHT22;23154;52.542;13.362;2022-10-16T07:24:10;16.00;99.90
37268;DHT22;23154;52.542;13.362;2022-10-16T07:26:37;16.00;99.90
37268;DHT22;23154;52.542;13.362;2022-10-16T07:29:04;16.10;99.90
37268;DHT22;23154;52.542;13.362;2022-10-16T07:31:30;16.20;99.90
37268;DHT22;23154;52.542;13.362;2022-10-16T07:33:57;16.20;99.90
37268;DHT22;23154;52.542;13.362;2022-10-16T07:36:23;16.20;99.90
37268;DHT22;23154;52.542;13.362;2022-10-16T07:38:48;16.20;99.90
37268;DHT22;23154;52.542;13.362;2022-10-16T07:41:15;16.30;99.90
37268;DHT22;23154;52.542;13.362;2022-10-16T07:44:02;16.40;99.90
37268;DHT22;23154;52.542;13.362;2022-10-16T07:46:27;16.40;99.90
37268;DHT22;23154;52.542;13.362;2022-10-16T07:48:53;16.50;99.90
37268;DHT22;23154;52.542;13.362;2022-10-16T07:51:20;16.50;99.90
37268;DHT22;23154;52.542;13.362;2022-10-16T07:53:46;16.50;99.90
37268;DHT22;23154;52.542;13.362;2022-10-16T07:56:13;16.60;99.90
37268;DHT22;23154;52.542;13.362;2022-10-16T07:58:39;16.40;99.90
37268;DHT22;23154;52.542;13.362;2022-10-16T08:01:06;16.40;99.90
37268;DHT22;23154;52.542;13.362;2022-10-16T08:03:31;16.40;99.90
37268;DHT22;23154;52.542;13.362;2022-10-16T08:05:57;16.40;99.90
37268;DHT22;23154;52.542;13.362;2022-10-16T08:08:23;16.40;99.90
37268;DHT22;23154;52.542;13.362;2022-10-16T08:10:48;16.50;99.90
37268;DHT22;23154;52.542;13.362;2022-10-16T08:13:14;16.50;99.90
37268;DHT22;23154;52.542;13.362;2022-10-16T08:15:41;16.60;99.90
37268;DHT22;23154;52.542;13.362;2022-10-16T08:18:06;16.70;99.90
37268;DHT22;23154;52.542;13.362;2022-10-16T08:20:32;16.80;99.90
37268;DHT22;23154;52.542;13.362;2022-10-16T08:23:00;16.80;99.90
37268;DHT22;23154;52.542;13.362;2022-10-16T08:25:26;16.80;99.90
37268;DHT22;23154;52.542;13.362;2022-10-16T08:27:52;16.80;99.90
37268;DHT22;23154;52.542;13.362;2022-10-16T08:30:18;16.70;99.90
37268;DHT22;23154;52.542;13.362;2022-10-16T08:32:44;16.70;99.90
37268;DHT22;23154;52.542;13.362;2022-10-16T08:35:10;16.80;99.90
37268;DHT22;23154;52.542;13.362;2022-10-16T08:37:36;16.80;99.90
37268;DHT22;23154;52.542;13.362;2022-10-16T08:40:02;16.90;99.90
37268;DHT22;23154;52.542;13.362;2022-10-16T08:45:07;17.10;99.90
37268;DHT22;23154;52.542;13.362;2022-10-16T08:47:38;17.20;99.90
37268;DHT22;23154;52.542;13.362;2022-10-16T08:50:10;17.30;99.90
37268;DHT22;23154;52.542;13.362;2022-10-16T08:52:38;17.40;99.90
37268;DHT22;23154;52.542;13.362;2022-10-16T08:55:04;17.40;99.90
37268;DHT22;23154;52.542;13.362;2022-10-16T08:57:29;17.30;99.90
37268;DHT22;23154;52.542;13.362;2022-10-16T08:59:57;17.50;99.90
37268;DHT22;23154;52.542;13.362;2022-10-16T09:02:32;17.60;99.90
37268;DHT22;23154;52.542;13.362;2022-10-16T09:05:02;17.60;99.90
37268;DHT22;23154;52.542;13.362;2022-10-16T09:07:38;17.60;99.90
37268;DHT22;23154;52.542;13.362;2022-10-16T09:15:14;17.80;99.90
37268;DHT22;23154;52.542;13.362;2022-10-16T09:20:20;18.10;99.90
37268;DHT22;23154;52.542;13.362;2022-10-16T09:22:48;17.90;99.90
37268;DHT22;23154;52.542;13.362;2022-10-16T09:25:14;17.70;99.90
37268;DHT22;23154;52.542;13.362;2022-10-16T09:27:40;17.80;99.90
37268;DHT22;23154;52.542;13.362;2022-10-16T09:30:17;17.80;99.90
37268;DHT22;23154;52.542;13.362;2022-10-16T09:32:43;17.70;99.90
37268;DHT22;23154;52.542;13.362;2022-10-16T09:35:11;17.70;99.90
37268;DHT22;23154;52.542;13.362;2022-10-16T09:37:38;17.70;99.90
37268;DHT22;23154;52.542;13.362;2022-10-16T09:40:04;17.80;99.90
37268;DHT22;23154;52.542;13.362;2022-10-16T09:42:34;17.90;99.90
37268;DHT22;23154;52.542;13.362;2022-10-16T09:45:02;17.90;99.90
37268;DHT22;23154;52.542;13.362;2022-10-16T09:47:29;17.90;99.90
37268;DHT22;23154;52.542;13.362;2022-10-16T09:49:55;18.00;99.90
37268;DHT22;23154;52.542;13.362;2022-10-16T09:52:23;18.00;99.90
37268;DHT22;23154;52.542;13.362;2022-10-16T09:54:56;17.90;99.90
37268;DHT22;23154;52.542;13.362;2022-10-16T09:57:22;18.00;99.90
37268;DHT22;23154;52.542;13.362;2022-10-16T09:59:48;18.10;99.90
37268;DHT22;23154;52.542;13.362;2022-10-16T10:02:15;18.20;99.90
37268;DHT22;23154;52.542;13.362;2022-10-16T10:04:42;18.30;99.90
37268;DHT22;23154;52.542;13.362;2022-10-16T10:07:16;18.50;99.90
37268;DHT22;23154;52.542;13.362;2022-10-16T10:09:43;18.60;99.90
37268;DHT22;23154;52.542;13.362;2022-10-16T10:12:23;18.50;99.90
37268;DHT22;23154;52.542;13.362;2022-10-16T10:14:52;18.50;99.90
37268;DHT22;23154;52.542;13.362;2022-10-16T10:17:24;18.40;99.90
37268;DHT22;23154;52.542;13.362;2022-10-16T10:19:55;18.50;99.90
37268;DHT22;23154;52.542;13.362;2022-10-16T10:22:25;18.50;99.90
37268;DHT22;23154;52.542;13.362;2022-10-16T10:30:06;18.40;99.90
37268;DHT22;23154;52.542;13.362;2022-10-16T10:35:14;18.50;99.90
37268;DHT22;23154;52.542;13.362;2022-10-16T10:37:53;18.50;99.90
37268;DHT22;23154;52.542;13.362;2022-10-16T10:40:28;18.50;99.90
37268;DHT22;23154;52.542;13.362;2022-10-16T10:45:47;18.70;99.90
37268;DHT22;23154;52.542;13.362;2022-10-16T10:48:17;18.80;99.90
37268;DHT22;23154;52.542;13.362;2022-10-16T10:50:49;19.10;99.90
37268;DHT22;23154;52.542;13.362;2022-10-16T10:53:21;19.40;99.90
37268;DHT22;23154;52.542;13.362;2022-10-16T10:55:52;19.60;99.90
37268;DHT22;23154;52.542;13.362;2022-10-16T10:58:29;19.60;99.90
37268;DHT22;23154;52.542;13.362;2022-10-16T11:01:08;19.80;99.90
37268;DHT22;23154;52.542;13.362;2022-10-16T11:06:52;20.40;99.90
37268;DHT22;23154;52.542;13.362;2022-10-16T11:11:31;20.60;99.90
37268;DHT22;23154;52.542;13.362;2022-10-16T11:14:06;20.50;99.90
37268;DHT22;23154;52.542;13.362;2022-10-16T11:16:37;20.40;99.90
37268;DHT22;23154;52.542;13.362;2022-10-16T11:21:51;20.20;99.90
37268;DHT22;23154;52.542;13.362;2022-10-16T11:24:23;19.90;99.90
37268;DHT22;23154;52.542;13.362;2022-10-16T11:26:54;19.80;99.90
37268;DHT22;23154;52.542;13.362;2022-10-16T11:29:23;19.60;99.90
37268;DHT22;23154;52.542;13.362;2022-10-16T11:31:52;19.40;99.90
37268;DHT22;23154;52.542;13.362;2022-10-16T11:36:51;19.00;99.90
37268;DHT22;23154;52.542;13.362;2022-10-16T11:47:14;18.90;99.90
37268;DHT22;23154;52.542;13.362;2022-10-16T11:49:43;18.90;99.90
37268;DHT22;23154;52.542;13.362;2022-10-16T11:52:20;18.90;99.90
37268;DHT22;23154;52.542;13.362;2022-10-16T11:54:50;18.90;99.90
37268;DHT22;23154;52.542;13.362;2022-10-16T11:57:24;18.80;99.90
37268;DHT22;23154;52.542;13.362;2022-10-16T12:00:02;18.80;99.90
37268;DHT22;23154;52.542;13.362;2022-10-16T12:05:03;18.80;99.90
37268;DHT22;23154;52.542;13.362;2022-10-16T12:07:36;18.80;99.90
37268;DHT22;23154;52.542;13.362;2022-10-16T12:10:17;18.90;99.90
37268;DHT22;23154;52.542;13.362;2022-10-16T12:12:44;18.90;99.90
37268;DHT22;23154;52.542;13.362;2022-10-16T12:17:43;19.10;99.90
37268;DHT22;23154;52.542;13.362;2022-10-16T12:22:37;19.20;99.90
37268;DHT22;23154;52.542;13.362;2022-10-16T12:25:18;19.20;99.90
37268;DHT22;23154;52.542;13.362;2022-10-16T12:27:44;19.20;99.90
37268;DHT22;23154;52.542;13.362;2022-10-16T12:30:15;19.30;99.90
37268;DHT22;23154;52.542;13.362;2022-10-16T12:32:45;19.40;99.90
37268;DHT22;23154;52.542;13.362;2022-10-16T12:35:22;19.40;99.90
37268;DHT22;23154;52.542;13.362;2022-10-16T12:37:48;19.50;99.90
37268;DHT22;23154;52.542;13.362;2022-10-16T12:40:15;19.60;99.90
37268;DHT22;23154;52.542;13.362;2022-10-16T12:42:41;19.70;99.90
37268;DHT22;23154;52.542;13.362;2022-10-16T12:45:23;19.60;99.90
37268;DHT22;23154;52.542;13.362;2022-10-16T12:47:51;19.70;99.90
37268;DHT22;23154;52.542;13.362;2022-10-16T12:50:24;19.80;99.90
37268;DHT22;23154;52.542;13.362;2022-10-16T12:52:49;19.80;99.90
37268;DHT22;23154;52.542;13.362;2022-10-16T12:55:16;19.80;99.90
37268;DHT22;23154;52.542;13.362;2022-10-16T13:00:20;19.80;99.90
37268;DHT22;23154;52.542;13.362;2022-10-16T13:18:16;19.70;99.90
37268;DHT22;23154;52.542;13.362;2022-10-16T13:20:52;19.80;99.90
37268;DHT22;23154;52.542;13.362;2022-10-16T13:26:00;19.50;99.90
37268;DHT22;23154;52.542;13.362;2022-10-16T13:28:30;19.50;99.90
37268;DHT22;23154;52.542;13.362;2022-10-16T13:30:57;19.50;99.90
37268;DHT22;23154;52.542;13.362;2022-10-16T13:35:58;19.80;99.90
37268;DHT22;23154;52.542;13.362;2022-10-16T13:38:33;19.90;99.90
37268;DHT22;23154;52.542;13.362;2022-10-16T13:43:34;20.00;99.90
37268;DHT22;23154;52.542;13.362;2022-10-16T13:46:05;20.00;99.90
37268;DHT22;23154;52.542;13.362;2022-10-16T13:48:31;20.10;99.90
37268;DHT22;23154;52.542;13.362;2022-10-16T13:53:35;20.00;99.90
37268;DHT22;23154;52.542;13.362;2022-10-16T13:56:04;20.00;99.90
37268;DHT22;23154;52.542;13.362;2022-10-16T13:58:32;20.00;99.90
37268;DHT22;23154;52.542;13.362;2022-10-16T14:00:59;20.00;99.90
37268;DHT22;23154;52.542;13.362;2022-10-16T14:03:25;20.00;99.90
37268;DHT22;23154;52.542;13.362;2022-10-16T14:05:52;19.90;99.90
37268;DHT22;23154;52.542;13.362;2022-10-16T14:08:18;19.90;99.90
37268;DHT22;23154;52.542;13.362;2022-10-16T14:10:46;19.90;99.90
37268;DHT22;23154;52.542;13.362;2022-10-16T14:13:15;19.80;99.90
37268;DHT22;23154;52.542;13.362;2022-10-16T14:15:45;19.80;99.90
37268;DHT22;23154;52.542;13.362;2022-10-16T14:18:30;19.70;99.90
37268;DHT22;23154;52.542;13.362;2022-10-16T14:20:55;19.70;99.90
37268;DHT22;23154;52.542;13.362;2022-10-16T14:23:31;19.60;99.90
37268;DHT22;23154;52.542;13.362;2022-10-16T14:28:38;19.50;99.90
37268;DHT22;23154;52.542;13.362;2022-10-16T14:33:49;19.50;99.90
37268;DHT22;23154;52.542;13.362;2022-10-16T14:36:15;19.50;99.90
37268;DHT22;23154;52.542;13.362;2022-10-16T14:41:15;19.50;99.90
37268;DHT22;23154;52.542;13.362;2022-10-16T14:43:41;19.50;99.90
37268;DHT22;23154;52.542;13.362;2022-10-16T14:46:49;19.50;99.90
37268;DHT22;23154;52.542;13.362;2022-10-16T14:48:58;19.50;99.90
37268;DHT22;23154;52.542;13.362;2022-10-16T14:51:25;19.40;99.90
37268;DHT22;23154;52.542;13.362;2022-10-16T14:53:51;19.40;99.90
37268;DHT22;23154;52.542;13.362;2022-10-16T14:56:21;19.40;99.90
37268;DHT22;23154;52.542;13.362;2022-10-16T14:58:48;19.50;99.90
37268;DHT22;23154;52.542;13.362;2022-10-16T15:01:13;19.60;99.90
37268;DHT22;23154;52.542;13.362;2022-10-16T15:03:39;19.50;99.90
37268;DHT22;23154;52.542;13.362;2022-10-16T15:06:09;19.60;99.90
37268;DHT22;23154;52.542;13.362;2022-10-16T15:08:35;19.50;99.90
37268;DHT22;23154;52.542;13.362;2022-10-16T15:11:01;19.40;99.90
37268;DHT22;23154;52.542;13.362;2022-10-16T15:13:26;19.40;99.90
37268;DHT22;23154;52.542;13.362;2022-10-16T15:15:52;19.40;99.90
37268;DHT22;23154;52.542;13.362;2022-10-16T15:18:18;19.30;99.90
37268;DHT22;23154;52.542;13.362;2022-10-16T15:20:50;19.30;99.90
37268;DHT22;23154;52.542;13.362;2022-10-16T15:23:17;19.20;99.90
37268;DHT22;23154;52.542;13.362;2022-10-16T15:25:44;19.20;99.90
37268;DHT22;23154;52.542;13.362;2022-10-16T15:28:10;19.10;99.90
37268;DHT22;23154;52.542;13.362;2022-10-16T15:30:36;19.00;99.90
37268;DHT22;23154;52.542;13.362;2022-10-16T15:33:02;18.90;99.90
37268;DHT22;23154;52.542;13.362;2022-10-16T15:35:29;18.80;99.90
37268;DHT22;23154;52.542;13.362;2022-10-16T15:37:54;18.90;99.90
37268;DHT22;23154;52.542;13.362;2022-10-16T15:40:20;18.80;99.90
37268;DHT22;23154;52.542;13.362;2022-10-16T15:42:46;18.70;99.90
37268;DHT22;23154;52.542;13.362;2022-10-16T15:45:12;18.70;99.90
37268;DHT22;23154;52.542;13.362;2022-10-16T15:47:37;18.60;99.90
37268;DHT22;23154;52.542;13.362;2022-10-16T15:50:03;18.50;99.90
37268;DHT22;23154;52.542;13.362;2022-10-16T15:52:29;18.40;99.90
37268;DHT22;23154;52.542;13.362;2022-10-16T15:54:57;18.20;99.90
37268;DHT22;23154;52.542;13.362;2022-10-16T15:57:22;18.10;99.90
37268;DHT22;23154;52.542;13.362;2022-10-16T15:59:49;17.90;99.90
37268;DHT22;23154;52.542;13.362;2022-10-16T16:02:14;17.70;99.90
37268;DHT22;23154;52.542;13.362;2022-10-16T16:04:40;17.60;99.90
37268;DHT22;23154;52.542;13.362;2022-10-16T16:07:05;17.40;99.90
37268;DHT22;23154;52.542;13.362;2022-10-16T16:09:33;17.30;99.90
37268;DHT22;23154;52.542;13.362;2022-10-16T16:11:58;17.20;99.90
37268;DHT22;23154;52.542;13.362;2022-10-16T16:14:26;17.10;99.90
37268;DHT22;23154;52.542;13.362;2022-10-16T16:16:56;17.00;99.90
37268;DHT22;23154;52.542;13.362;2022-10-16T16:19:21;16.80;99.90
37268;DHT22;23154;52.542;13.362;2022-10-16T16:21:47;16.60;99.90
37268;DHT22;23154;52.542;13.362;2022-10-16T16:24:13;16.40;99.90
37268;DHT22;23154;52.542;13.362;2022-10-16T16:26:38;16.30;99.90
37268;DHT22;23154;52.542;13.362;2022-10-16T16:29:12;16.10;99.90
37268;DHT22;23154;52.542;13.362;2022-10-16T16:31:38;16.20;99.90
37268;DHT22;23154;52.542;13.362;2022-10-16T16:34:04;16.10;99.90
37268;DHT22;23154;52.542;13.362;2022-10-16T16:36:29;16.00;99.90
37268;DHT22;23154;52.542;13.362;2022-10-16T16:38:55;16.00;99.90
37268;DHT22;23154;52.542;13.362;2022-10-16T16:41:26;16.00;99.90
37268;DHT22;23154;52.542;13.362;2022-10-16T16:43:52;16.00;99.90
37268;DHT22;23154;52.542;13.362;2022-10-16T16:46:17;16.00;99.90
37268;DHT22;23154;52.542;13.362;2022-10-16T16:48:43;15.80;99.90
37268;DHT22;23154;52.542;13.362;2022-10-16T16:51:10;15.70;99.90
37268;DHT22;23154;52.542;13.362;2022-10-16T16:53:40;15.60;99.90
37268;DHT22;23154;52.542;13.362;2022-10-16T16:56:06;15.60;99.90
37268;DHT22;23154;52.542;13.362;2022-10-16T16:58:31;15.60;99.90
37268;DHT22;23154;52.542;13.362;2022-10-16T17:00:57;15.50;99.90